createdAt,value
2019-04-20T00:02:14.378Z,45.29
2019-04-20T00:04:37.466Z,45.11
2019-04-20T00:07:04.007Z,44.78
2019-04-20T00:09:34.808Z,44.62
2019-04-20T00:12:06.888Z,44.40
2019-04-20T00:14:30.928Z,44.41
2019-04-20T00:16:54.726Z,44.31
2019-04-20T00:19:26.142Z,45.22
2019-04-20T00:21:58.593Z,46.36
2019-04-20T00:24:38.964Z,45.75
2019-04-20T00:27:34.975Z,44.76
2019-04-20T00:29:54.761Z,44.71
2019-04-20T00:32:15.537Z,44.12
2019-04-20T00:34:37.221Z,43.92
2019-04-20T00:37:00.379Z,43.95
2019-04-20T00:39:27.867Z,44.02
2019-04-20T00:42:00.308Z,44.13
2019-04-20T00:44:28.606Z,43.59
2019-04-20T00:47:04.753Z,43.81
2019-04-20T00:49:34.975Z,43.69
2019-04-20T00:52:13.154Z,45.17
2019-04-20T00:54:15.982Z,45.26
2019-04-20T00:56:43.391Z,48.04
2019-04-20T00:59:25.802Z,47.16
2019-04-20T01:02:00.278Z,46.21
2019-04-20T01:04:23.884Z,46.63
2019-04-20T01:06:58.971Z,48.09
2019-04-20T01:09:18.269Z,48.05
2019-04-20T01:11:47.874Z,47.72
2019-04-20T01:14:14.584Z,46.74
2019-04-20T01:16:46.997Z,45.82
2019-04-20T01:19:08.888Z,45.75
2019-04-20T01:21:35.523Z,45.23
2019-04-20T01:24:07.932Z,44.62
2019-04-20T01:26:31.414Z,44.46
2019-04-20T01:29:09.019Z,45.07
2019-04-20T01:31:35.545Z,45.46
2019-04-20T01:34:03.197Z,45.21
2019-04-20T01:36:43.049Z,45.12
2019-04-20T01:39:02.738Z,44.76
2019-04-20T01:41:18.332Z,44.74
2019-04-20T01:43:44.475Z,44.79
2019-04-20T01:46:15.748Z,44.64
2019-04-20T01:48:41.510Z,45.08
2019-04-20T01:51:16.462Z,44.53
2019-04-20T01:53:46.482Z,44.22
2019-04-20T01:56:18.352Z,44.21
2019-04-20T01:58:58.222Z,44.06
2019-04-20T02:01:23.040Z,43.34
2019-04-20T02:03:50.507Z,42.99
2019-04-20T02:06:22.749Z,43.05
2019-04-20T02:08:52.879Z,42.76
2019-04-20T02:11:21.954Z,42.09
2019-04-20T02:13:51.288Z,41.96
2019-04-20T02:16:22.631Z,42.23
2019-04-20T02:18:59.144Z,42.21
2019-04-20T02:21:25.832Z,41.94
2019-04-20T02:23:46.206Z,42.00
2019-04-20T02:26:05.135Z,41.60
2019-04-20T02:28:58.591Z,41.85
2019-04-20T02:34:04.030Z,41.74
2019-04-20T02:36:51.210Z,41.97
2019-04-20T02:46:31.601Z,41.68
2019-04-20T02:49:12.921Z,41.91
2019-04-20T02:51:33.801Z,42.29
2019-04-20T02:54:14.092Z,42.92
2019-04-20T02:56:31.942Z,44.09
2019-04-20T02:59:14.770Z,42.97
2019-04-20T03:01:26.707Z,42.83
2019-04-20T03:03:39.071Z,42.56
2019-04-20T03:06:13.355Z,42.66
2019-04-20T03:08:51.593Z,43.27
2019-04-20T03:11:21.229Z,43.16
2019-04-20T03:13:44.061Z,43.23
2019-04-20T03:16:12.407Z,43.70
2019-04-20T03:18:39.912Z,43.46
2019-04-20T03:21:12.893Z,44.36
2019-04-20T03:23:42.830Z,44.51
2019-04-20T03:26:12.807Z,44.63
2019-04-20T03:28:42.945Z,45.30
2019-04-20T03:31:59.569Z,45.09
2019-04-20T03:36:44.666Z,43.98
2019-04-20T03:38:57.284Z,43.49
2019-04-20T03:41:18.297Z,45.47
2019-04-20T03:43:35.375Z,49.37
2019-04-20T03:46:07.511Z,51.01
2019-04-20T03:48:48.377Z,48.72
2019-04-20T03:51:26.837Z,47.95
2019-04-20T03:54:05.164Z,46.01
2019-04-20T03:56:35.194Z,45.89
2019-04-20T03:59:16.083Z,45.26
2019-04-20T04:04:25.711Z,46.05
2019-04-20T04:06:39.312Z,46.49
2019-04-20T04:09:14.734Z,48.96
2019-04-20T04:11:46.117Z,48.33
2019-04-20T04:13:56.673Z,48.96
2019-04-20T04:16:27.807Z,50.92
2019-04-20T04:19:01.438Z,50.93
2019-04-20T04:21:35.511Z,50.19
2019-04-20T04:24:02.453Z,50.33
2019-04-20T04:26:32.289Z,48.76
2019-04-20T04:29:08.311Z,46.64
2019-04-20T04:31:34.993Z,43.17
2019-04-20T04:33:59.339Z,39.32
2019-04-20T04:36:21.170Z,36.15
2019-04-20T04:39:05.438Z,36.17
2019-04-20T04:41:36.685Z,41.16
2019-04-20T04:43:51.093Z,45.71
2019-04-20T04:46:01.716Z,45.55
2019-04-20T04:48:34.659Z,47.64
2019-04-20T04:51:02.729Z,47.31
2019-04-20T04:53:38.865Z,46.27
2019-04-20T04:55:58.570Z,45.09
2019-04-20T04:58:21.637Z,45.11
2019-04-20T05:00:49.353Z,46.67
2019-04-20T05:03:35.106Z,46.85
2019-04-20T05:06:06.606Z,46.56
2019-04-20T05:08:24.051Z,45.21
2019-04-20T05:10:43.650Z,44.63
2019-04-20T05:13:11.308Z,44.93
2019-04-20T05:15:57.337Z,43.29
2019-04-20T05:18:34.418Z,43.96
2019-04-20T05:21:03.192Z,45.12
2019-04-20T05:23:32.035Z,44.01
2019-04-20T05:26:22.671Z,44.96
2019-04-20T05:28:48.339Z,45.06
2019-04-20T05:31:11.121Z,47.20
2019-04-20T05:34:03.927Z,45.24
2019-04-20T05:36:24.742Z,45.80
2019-04-20T05:38:59.038Z,45.82
2019-04-20T05:41:16.651Z,46.10
2019-04-20T05:43:56.321Z,47.41
2019-04-20T05:46:26.292Z,46.63
2019-04-20T05:48:57.875Z,48.94
2019-04-20T05:51:29.527Z,49.05
2019-04-20T05:53:54.750Z,48.42
2019-04-20T05:56:17.319Z,47.17
2019-04-20T05:58:49.585Z,46.44
2019-04-20T06:01:22.862Z,46.42
2019-04-20T06:03:45.088Z,47.24
2019-04-20T06:06:15.098Z,49.24
2019-04-20T06:08:50.453Z,46.12
2019-04-20T06:11:13.383Z,44.23
2019-04-20T06:13:37.908Z,43.27
2019-04-20T06:16:33.276Z,42.49
2019-04-20T06:19:06.342Z,39.57
2019-04-20T06:21:53.056Z,38.70
2019-04-20T06:24:02.627Z,36.79
2019-04-20T06:26:56.570Z,35.66
2019-04-20T06:29:16.328Z,34.71
2019-04-20T06:31:45.934Z,34.44
2019-04-20T06:36:57.299Z,33.85
2019-04-20T06:44:24.169Z,38.50
2019-04-20T06:46:52.451Z,39.63
2019-04-20T06:49:24.437Z,38.38
2019-04-20T06:54:39.447Z,32.84
2019-04-20T06:57:07.298Z,35.67
2019-04-20T06:59:40.786Z,35.59
2019-04-20T07:02:11.147Z,36.83
2019-04-20T07:07:03.714Z,36.59
2019-04-20T07:09:42.263Z,39.27
2019-04-20T07:11:50.474Z,38.45
2019-04-20T07:14:08.209Z,37.57
2019-04-20T07:17:09.650Z,37.43
2019-04-20T07:19:37.223Z,34.91
2019-04-20T07:22:23.122Z,35.21
2019-04-20T07:24:43.120Z,35.44
2019-04-20T07:27:06.122Z,37.97
2019-04-20T07:29:43.179Z,36.38
2019-04-20T07:31:57.698Z,38.07
2019-04-20T07:34:26.160Z,35.23
2019-04-20T07:37:17.743Z,35.09
2019-04-20T07:39:32.943Z,34.39
2019-04-20T07:42:00.613Z,32.69
2019-04-20T07:48:22.288Z,32.80
2019-04-20T07:50:40.920Z,32.29
2019-04-20T07:53:13.589Z,33.27
2019-04-20T07:59:25.332Z,36.27
2019-04-20T08:09:07.166Z,32.24
2019-04-20T08:11:48.768Z,30.85
2019-04-20T08:14:22.743Z,31.52
2019-04-20T08:17:09.147Z,31.11
2019-04-20T08:29:54.303Z,33.47
2019-04-20T08:32:32.455Z,33.74
2019-04-20T08:35:05.615Z,30.16
2019-04-20T08:37:28.022Z,29.92
2019-04-20T08:40:02.912Z,31.17
2019-04-20T08:42:31.290Z,28.40
2019-04-20T08:47:35.112Z,31.95
2019-04-20T08:50:19.297Z,32.40
2019-04-20T08:53:06.874Z,33.30
2019-04-20T08:55:05.328Z,32.12
2019-04-20T08:57:17.890Z,31.88
2019-04-20T08:59:48.247Z,35.42
2019-04-20T09:02:15.722Z,38.25
2019-04-20T09:04:47.854Z,38.25
2019-04-20T09:07:15.260Z,36.28
2019-04-20T09:10:00.781Z,36.28
2019-04-20T09:12:23.238Z,36.69
2019-04-20T09:14:36.746Z,34.87
2019-04-20T09:17:07.957Z,34.03
2019-04-20T09:19:39.914Z,33.28
2019-04-20T09:22:28.022Z,33.32
2019-04-20T09:25:13.248Z,33.71
2019-04-20T09:27:26.907Z,33.01
2019-04-20T09:30:00.212Z,31.42
2019-04-20T09:32:35.964Z,31.54
2019-04-20T09:35:07.815Z,31.52
2019-04-20T09:37:39.469Z,31.85
2019-04-20T09:40:21.545Z,30.47
2019-04-20T09:42:34.766Z,28.13
2019-04-20T09:45:04.136Z,26.91
2019-04-20T09:47:37.044Z,27.22
2019-04-20T09:50:08.965Z,26.45
2019-04-20T09:52:45.735Z,25.18
2019-04-20T09:55:09.229Z,26.34
2019-04-20T09:57:38.084Z,26.79
2019-04-20T10:00:05.403Z,29.12
2019-04-20T10:02:24.000Z,28.88
2019-04-20T10:04:47.217Z,29.11
2019-04-20T10:07:17.737Z,32.45
2019-04-20T10:09:44.976Z,31.39
2019-04-20T10:12:11.168Z,33.24
2019-04-20T10:14:38.486Z,34.45
2019-04-20T10:17:05.715Z,30.50
2019-04-20T10:19:34.667Z,31.60
2019-04-20T10:22:00.409Z,30.26
2019-04-20T10:24:26.880Z,29.23
2019-04-20T10:26:54.493Z,30.60
2019-04-20T10:29:21.609Z,32.33
2019-04-20T10:31:54.579Z,31.67
2019-04-20T10:34:17.648Z,30.64
2019-04-20T10:36:46.216Z,30.13
2019-04-20T10:39:12.878Z,28.36
2019-04-20T10:41:47.707Z,27.22
2019-04-20T10:44:07.292Z,25.20
2019-04-20T10:46:33.490Z,26.91
2019-04-20T10:49:03.816Z,28.34
2019-04-20T10:51:29.244Z,27.17
2019-04-20T10:53:56.136Z,27.43
2019-04-20T10:56:23.258Z,28.93
2019-04-20T10:58:49.704Z,29.35
2019-04-20T11:01:16.048Z,28.52
2019-04-20T11:03:42.723Z,28.76
2019-04-20T11:06:09.116Z,26.81
2019-04-20T11:08:35.373Z,27.81
2019-04-20T11:11:10.893Z,25.86
2019-04-20T11:13:29.707Z,26.29
2019-04-20T11:15:56.670Z,27.06
2019-04-20T11:18:23.115Z,26.14
2019-04-20T11:20:49.391Z,25.72
2019-04-20T11:23:16.134Z,25.19
2019-04-20T11:25:42.345Z,25.52
2019-04-20T11:28:08.538Z,23.45
2019-04-20T11:30:36.221Z,22.95
2019-04-20T11:33:02.706Z,24.14
2019-04-20T11:35:34.477Z,24.17
2019-04-20T11:37:57.499Z,22.94
2019-04-20T11:40:23.864Z,26.62
2019-04-20T11:42:50.056Z,26.87
2019-04-20T11:45:16.438Z,26.76
2019-04-20T11:47:43.417Z,26.07
2019-04-20T11:50:11.381Z,24.96
2019-04-20T11:52:41.367Z,23.90
2019-04-20T11:55:08.480Z,21.43
2019-04-20T11:57:35.400Z,22.26
2019-04-20T12:00:03.579Z,22.55
2019-04-20T12:02:44.303Z,22.96
2019-04-20T12:05:27.334Z,22.59
2019-04-20T12:07:49.203Z,20.90
2019-04-20T12:10:22.201Z,20.14
2019-04-20T12:12:49.391Z,17.92
2019-04-20T12:15:14.752Z,18.44
2019-04-20T12:17:41.791Z,17.70
2019-04-20T12:20:08.274Z,17.95
2019-04-20T12:22:34.587Z,18.42
2019-04-20T12:25:00.733Z,19.30
2019-04-20T12:27:27.030Z,19.51
2019-04-20T12:29:54.013Z,17.61
2019-04-20T12:32:21.722Z,16.54
2019-04-20T12:34:49.500Z,16.71
2019-04-20T12:37:15.817Z,17.79
2019-04-20T12:39:42.888Z,17.72
2019-04-20T12:42:10.078Z,16.87
2019-04-20T12:44:37.669Z,18.29
2019-04-20T12:47:04.081Z,19.86
2019-04-20T12:49:31.635Z,20.87
2019-04-20T12:52:01.497Z,21.08
2019-04-20T12:54:26.910Z,21.71
2019-04-20T12:56:53.244Z,21.07
2019-04-20T12:59:19.434Z,20.97
2019-04-20T13:01:47.005Z,21.85
2019-04-20T13:04:14.403Z,21.64
2019-04-20T13:06:40.930Z,21.31
2019-04-20T13:09:10.731Z,21.53
2019-04-20T13:11:52.709Z,20.62
2019-04-20T13:14:48.538Z,19.25
2019-04-20T13:17:14.989Z,18.28
2019-04-20T13:19:41.534Z,19.42
2019-04-20T13:22:08.082Z,19.43
2019-04-20T13:24:34.655Z,20.23
2019-04-20T13:27:01.141Z,19.88
2019-04-20T13:29:27.406Z,19.51
2019-04-20T13:31:56.267Z,19.28
2019-04-20T13:34:22.241Z,19.09
2019-04-20T13:36:48.652Z,18.96
2019-04-20T13:39:14.915Z,18.70
2019-04-20T13:41:42.113Z,17.90
2019-04-20T13:44:08.507Z,19.37
2019-04-20T13:46:34.755Z,20.45
2019-04-20T13:49:00.944Z,20.02
2019-04-20T13:51:28.696Z,20.97
2019-04-20T13:53:55.312Z,20.46
2019-04-20T13:56:23.801Z,19.42
2019-04-20T13:59:03.985Z,19.42
2019-04-20T14:01:34.808Z,18.72
2019-04-20T14:04:14.957Z,18.29
2019-04-20T14:06:41.545Z,18.18
2019-04-20T14:09:07.743Z,18.31
2019-04-20T14:11:33.989Z,17.64
2019-04-20T14:14:03.178Z,17.88
2019-04-20T14:16:29.356Z,16.02
2019-04-20T14:18:55.640Z,17.75
2019-04-20T14:21:21.813Z,17.52
2019-04-20T14:23:48.611Z,18.30
2019-04-20T14:26:14.983Z,18.52
2019-04-20T14:28:41.155Z,18.19
2019-04-20T14:31:07.842Z,18.63
2019-04-20T14:33:34.869Z,18.86
2019-04-20T14:36:01.306Z,18.48
2019-04-20T14:38:28.499Z,19.00
2019-04-20T14:40:54.984Z,20.15
2019-04-20T14:43:22.322Z,20.40
2019-04-20T14:45:48.724Z,20.57
2019-04-20T14:48:14.924Z,21.14
2019-04-20T14:50:41.503Z,20.61
2019-04-20T14:53:07.658Z,21.28
2019-04-20T14:55:33.878Z,20.99
2019-04-20T14:58:01.966Z,22.13
2019-04-20T15:00:58.466Z,22.52
2019-04-20T15:03:26.683Z,22.08
2019-04-20T15:05:57.653Z,22.20
2019-04-20T15:08:24.883Z,21.14
2019-04-20T15:10:52.155Z,20.67
2019-04-20T15:13:18.586Z,20.88
2019-04-20T15:15:44.786Z,20.55
2019-04-20T15:18:13.443Z,21.42
2019-04-20T15:20:41.736Z,21.41
2019-04-20T15:23:09.875Z,21.70
2019-04-20T15:25:36.760Z,22.16
2019-04-20T15:28:03.189Z,21.91
2019-04-20T15:30:29.931Z,21.77
2019-04-20T15:32:56.893Z,21.86
2019-04-20T15:35:24.653Z,21.50
2019-04-20T15:37:51.271Z,21.76
2019-04-20T15:40:17.552Z,22.89
2019-04-20T15:42:56.188Z,22.56
2019-04-20T15:45:13.557Z,23.36
2019-04-20T15:47:40.259Z,23.60
2019-04-20T15:50:07.839Z,23.87
2019-04-20T15:52:37.582Z,22.94
2019-04-20T15:55:10.222Z,22.95
2019-04-20T15:57:33.178Z,22.87
2019-04-20T16:00:00.349Z,23.33
2019-04-20T16:02:29.450Z,23.81
2019-04-20T16:05:14.554Z,23.56
2019-04-20T16:07:49.876Z,22.84
2019-04-20T16:10:09.508Z,22.70
2019-04-20T16:12:35.949Z,23.91
2019-04-20T16:15:03.945Z,23.08
2019-04-20T16:17:36.718Z,24.10
2019-04-20T16:20:05.763Z,24.04
2019-04-20T16:22:28.904Z,24.61
2019-04-20T16:25:03.551Z,23.93
2019-04-20T16:27:34.233Z,24.05
2019-04-20T16:30:02.046Z,23.92
2019-04-20T16:32:30.087Z,23.75
2019-04-20T16:34:56.722Z,24.20
2019-04-20T16:37:24.459Z,25.10
2019-04-20T16:39:50.825Z,24.97
2019-04-20T16:42:18.243Z,24.38
2019-04-20T16:44:45.245Z,25.28
2019-04-20T16:47:12.308Z,26.27
2019-04-20T16:49:39.067Z,25.60
2019-04-20T16:52:05.623Z,26.30
2019-04-20T16:54:32.134Z,26.24
2019-04-20T16:56:58.494Z,26.44
2019-04-20T16:59:24.840Z,26.37
2019-04-20T17:01:51.191Z,26.93
2019-04-20T17:04:22.238Z,26.62
2019-04-20T17:07:03.731Z,26.94
2019-04-20T17:09:29.991Z,27.32
2019-04-20T17:11:57.394Z,27.54
2019-04-20T17:14:25.575Z,27.71
2019-04-20T17:16:52.042Z,27.87
2019-04-20T17:19:19.696Z,27.70
2019-04-20T17:21:46.479Z,28.38
2019-04-20T17:24:13.482Z,28.30
2019-04-20T17:26:43.246Z,28.84
2019-04-20T17:29:12.182Z,29.19
2019-04-20T17:31:47.363Z,29.59
2019-04-20T17:34:31.259Z,29.96
2019-04-20T17:36:42.311Z,30.11
2019-04-20T17:39:11.992Z,30.50
2019-04-20T17:41:56.291Z,30.54
2019-04-20T17:44:20.920Z,30.27
2019-04-20T17:46:46.476Z,30.83
2019-04-20T17:49:15.863Z,30.66
2019-04-20T17:51:53.250Z,30.54
2019-04-20T17:54:12.390Z,30.51
2019-04-20T17:56:44.387Z,30.49
2019-04-20T17:59:12.359Z,30.29
2019-04-20T18:01:55.509Z,30.19
2019-04-20T18:04:44.254Z,30.12
2019-04-20T18:06:51.667Z,30.51
2019-04-20T18:09:34.517Z,30.55
2019-04-20T18:11:42.673Z,31.06
2019-04-20T18:14:24.162Z,31.27
2019-04-20T18:16:56.307Z,31.53
2019-04-20T18:19:13.809Z,30.44
2019-04-20T18:21:42.343Z,30.75
2019-04-20T18:24:14.167Z,30.47
2019-04-20T18:26:52.083Z,30.11
2019-04-20T18:29:26.078Z,31.34
2019-04-20T18:31:39.606Z,31.30
2019-04-20T18:34:13.156Z,32.42
2019-04-20T18:36:39.936Z,31.58
2019-04-20T18:39:09.933Z,31.01
2019-04-20T18:41:41.591Z,31.84
2019-04-20T18:44:02.639Z,32.87
2019-04-20T18:46:54.566Z,33.38
2019-04-20T18:49:13.628Z,33.78
2019-04-20T18:51:25.953Z,33.77
2019-04-20T18:53:53.914Z,33.49
2019-04-20T18:56:25.604Z,34.41
2019-04-20T18:58:49.170Z,34.36
2019-04-20T19:01:16.961Z,33.99
2019-04-20T19:03:45.549Z,33.79
2019-04-20T19:06:12.455Z,34.24
2019-04-20T19:08:44.843Z,34.57
2019-04-20T19:11:11.449Z,34.36
2019-04-20T19:13:44.648Z,35.23
2019-04-20T19:16:35.562Z,34.97
2019-04-20T19:19:20.131Z,34.22
2019-04-20T19:21:37.417Z,34.20
2019-04-20T19:24:09.246Z,33.98
2019-04-20T19:26:32.202Z,33.90
2019-04-20T19:29:11.934Z,34.01
2019-04-20T19:31:42.606Z,33.93
2019-04-20T19:34:11.782Z,34.59
2019-04-20T19:36:30.715Z,35.71
2019-04-20T19:39:06.024Z,33.66
2019-04-20T19:41:32.026Z,33.73
2019-04-20T19:44:02.448Z,33.87
2019-04-20T19:46:49.298Z,34.08
2019-04-20T19:48:53.996Z,33.64
2019-04-20T19:51:34.024Z,33.58
2019-04-20T19:54:03.674Z,33.76
2019-04-20T19:56:28.233Z,34.24
2019-04-20T19:58:53.686Z,34.26
2019-04-20T20:01:05.331Z,34.19
2019-04-20T20:03:33.351Z,33.82
2019-04-20T20:06:01.406Z,34.03
2019-04-20T20:08:32.695Z,33.82
2019-04-20T20:10:59.221Z,33.77
2019-04-20T20:13:31.680Z,33.82
2019-04-20T20:15:57.692Z,34.22
2019-04-20T20:18:35.587Z,33.59
2019-04-20T20:21:04.710Z,33.42
2019-04-20T20:23:16.546Z,34.02
2019-04-20T20:25:46.438Z,34.61
2019-04-20T20:28:20.258Z,34.80
2019-04-20T20:30:53.804Z,34.34
2019-04-20T20:33:26.708Z,34.47
2019-04-20T20:35:45.790Z,35.07
2019-04-20T20:38:14.857Z,35.01
2019-04-20T20:40:37.978Z,35.31
2019-04-20T20:43:11.113Z,36.51
2019-04-20T20:45:36.140Z,35.28
2019-04-20T20:48:17.738Z,34.88
2019-04-20T20:50:42.745Z,35.15
2019-04-20T20:53:07.680Z,34.63
2019-04-20T20:55:31.797Z,34.43
2019-04-20T20:58:00.622Z,34.71
2019-04-20T21:00:33.205Z,35.13
2019-04-20T21:02:52.917Z,34.92
2019-04-20T21:05:13.655Z,35.22
2019-04-20T21:07:40.532Z,35.07
2019-04-20T21:10:08.327Z,34.71
2019-04-20T21:12:36.385Z,34.93
2019-04-20T21:15:13.435Z,34.95
2019-04-20T21:17:46.440Z,34.93
2019-04-20T21:20:20.182Z,35.17
2019-04-20T21:22:57.065Z,35.20
2019-04-20T21:25:11.103Z,35.49
2019-04-20T21:27:37.271Z,35.41
2019-04-20T21:30:05.681Z,35.07
2019-04-20T21:32:39.628Z,36.09
2019-04-20T21:35:06.553Z,35.08
2019-04-20T21:37:29.011Z,35.22
2019-04-20T21:39:59.699Z,35.23
2019-04-20T21:42:26.799Z,36.08
2019-04-20T21:44:57.266Z,35.76
2019-04-20T21:47:25.524Z,35.22
2019-04-20T21:49:57.444Z,35.11
2019-04-20T21:52:24.935Z,34.66
2019-04-20T21:54:45.598Z,34.31
2019-04-20T21:57:14.315Z,34.12
2019-04-20T21:59:45.045Z,34.07
2019-04-20T22:02:15.059Z,33.92
2019-04-20T22:04:37.643Z,34.65
2019-04-20T22:07:04.659Z,35.05
2019-04-20T22:09:38.454Z,38.24
2019-04-20T22:12:00.186Z,37.65
2019-04-20T22:14:30.034Z,37.52
2019-04-20T22:16:56.858Z,36.95
2019-04-20T22:19:36.186Z,37.30
2019-04-20T22:22:02.527Z,36.88
2019-04-20T22:24:33.083Z,36.76
2019-04-20T22:26:58.981Z,37.43
2019-04-20T22:29:16.211Z,37.34
2019-04-20T22:31:46.108Z,37.21
2019-04-20T22:34:16.887Z,38.08
2019-04-20T22:36:44.801Z,39.26
2019-04-20T22:39:15.661Z,38.65
2019-04-20T22:41:50.791Z,38.46
2019-04-20T22:44:17.046Z,39.61
2019-04-20T22:46:43.701Z,39.64
2019-04-20T22:49:28.185Z,39.13
2019-04-20T22:51:49.577Z,39.12
2019-04-20T22:54:21.770Z,39.20
2019-04-20T22:56:47.090Z,39.70
2019-04-20T22:59:10.987Z,40.37
2019-04-20T23:01:37.736Z,40.41
2019-04-20T23:03:59.087Z,39.93
2019-04-20T23:06:33.372Z,40.23
2019-04-20T23:08:59.364Z,39.90
2019-04-20T23:11:26.978Z,39.76
2019-04-20T23:13:51.674Z,40.67
2019-04-20T23:16:18.061Z,42.54
2019-04-20T23:18:44.484Z,41.61
2019-04-20T23:21:13.796Z,41.32
2019-04-20T23:23:39.512Z,41.26
2019-04-20T23:26:07.158Z,41.07
2019-04-20T23:28:35.457Z,40.99
2019-04-20T23:31:08.341Z,40.84
2019-04-20T23:33:29.995Z,40.76
2019-04-20T23:35:59.150Z,41.25
2019-04-20T23:38:24.849Z,41.05
2019-04-20T23:40:52.133Z,41.57
2019-04-20T23:43:28.961Z,41.27
2019-04-20T23:46:17.225Z,41.42
2019-04-20T23:48:50.080Z,41.38
2019-04-20T23:51:39.080Z,40.92
2019-04-20T23:53:55.321Z,40.77
2019-04-20T23:56:17.000Z,40.18
2019-04-20T23:58:46.426Z,40.46
